createdAt,value
2023-01-21T00:01:14.732Z,1.40
2023-01-21T00:03:44.722Z,1.40
2023-01-21T00:06:14.870Z,1.40
2023-01-21T00:08:42.948Z,1.40
2023-01-21T00:11:14.250Z,1.40
2023-01-21T00:13:43.210Z,1.40
2023-01-21T00:16:12.376Z,1.40
2023-01-21T00:18:40.471Z,1.40
2023-01-21T00:21:09.925Z,1.30
2023-01-21T00:23:37.876Z,1.30
2023-01-21T00:26:07.507Z,1.30
2023-01-21T00:28:37.291Z,1.30
2023-01-21T00:31:09.018Z,1.30
2023-01-21T00:33:37.926Z,1.30
2023-01-21T00:36:07.781Z,1.30
2023-01-21T00:38:37.534Z,1.30
2023-01-21T00:41:07.244Z,1.20
2023-01-21T00:43:36.033Z,1.20
2023-01-21T00:46:04.541Z,1.20
2023-01-21T00:48:33.030Z,1.10
2023-01-21T00:51:01.430Z,1.20
2023-01-21T00:53:30.313Z,1.20
2023-01-21T00:56:01.953Z,1.10
2023-01-21T00:58:30.848Z,1.10
2023-01-21T01:01:03.542Z,1.10
2023-01-21T01:03:32.056Z,1.10
2023-01-21T01:06:04.195Z,1.10
2023-01-21T01:08:32.861Z,1.10
2023-01-21T01:11:02.439Z,1.10
2023-01-21T01:13:30.774Z,1.10
2023-01-21T01:15:59.999Z,1.00
2023-01-21T01:18:29.210Z,1.10
2023-01-21T01:20:57.686Z,1.10
2023-01-21T01:23:26.215Z,1.10
2023-01-21T01:25:58.699Z,1.00
2023-01-21T01:28:28.576Z,1.10
2023-01-21T01:30:59.094Z,1.10
2023-01-21T01:33:28.320Z,1.10
2023-01-21T01:35:56.301Z,1.00
2023-01-21T01:38:24.486Z,1.00
2023-01-21T01:40:53.626Z,1.00
2023-01-21T01:43:24.420Z,0.90
2023-01-21T01:45:54.810Z,0.90
2023-01-21T01:48:27.274Z,1.00
2023-01-21T01:50:56.688Z,0.90
2023-01-21T01:53:27.663Z,0.90
2023-01-21T01:55:56.609Z,0.90
2023-01-21T01:58:25.466Z,1.00
2023-01-21T02:00:54.817Z,1.00
2023-01-21T02:03:42.170Z,1.00
2023-01-21T02:06:10.160Z,1.00
2023-01-21T02:08:38.259Z,1.00
2023-01-21T02:11:12.155Z,0.90
2023-01-21T02:13:41.489Z,0.80
2023-01-21T02:16:37.819Z,0.80
2023-01-21T02:19:29.260Z,0.70
2023-01-21T02:22:07.924Z,0.70
2023-01-21T02:25:04.290Z,0.70
2023-01-21T02:27:48.604Z,0.80
2023-01-21T02:30:47.518Z,0.80
2023-01-21T02:33:47.589Z,0.80
2023-01-21T02:36:32.555Z,0.80
2023-01-21T02:39:09.192Z,0.90
2023-01-21T02:41:48.170Z,0.90
2023-01-21T02:44:22.626Z,0.90
2023-01-21T02:46:56.394Z,1.00
2023-01-21T02:49:31.896Z,0.90
2023-01-21T02:51:59.930Z,0.90
2023-01-21T02:54:51.789Z,0.90
2023-01-21T02:57:28.737Z,0.90
2023-01-21T02:59:57.893Z,0.90
2023-01-21T03:02:38.471Z,0.90
2023-01-21T03:05:14.527Z,1.00
2023-01-21T03:07:47.653Z,0.90
2023-01-21T03:10:25.052Z,0.90
2023-01-21T03:13:01.862Z,0.90
2023-01-21T03:15:53.450Z,0.90
2023-01-21T03:18:27.588Z,0.90
2023-01-21T03:21:02.191Z,0.90
2023-01-21T03:23:34.957Z,0.80
2023-01-21T03:26:03.607Z,0.80
2023-01-21T03:28:34.987Z,0.90
2023-01-21T03:31:07.169Z,0.80
2023-01-21T03:33:38.585Z,0.80
2023-01-21T03:36:12.836Z,0.80
2023-01-21T03:38:46.122Z,0.80
2023-01-21T03:41:18.695Z,0.80
2023-01-21T03:43:46.892Z,0.80
2023-01-21T03:46:21.553Z,0.80
2023-01-21T03:48:54.405Z,0.80
2023-01-21T03:51:28.479Z,0.80
2023-01-21T03:53:58.103Z,0.70
2023-01-21T03:56:26.650Z,0.60
2023-01-21T03:58:55.083Z,0.60
2023-01-21T04:01:23.515Z,0.50
2023-01-21T04:03:51.526Z,0.60
2023-01-21T04:06:21.306Z,0.50
2023-01-21T04:08:50.941Z,0.50
2023-01-21T04:11:19.160Z,0.50
2023-01-21T04:13:47.220Z,0.50
2023-01-21T04:16:15.312Z,0.50
2023-01-21T04:18:43.347Z,0.50
2023-01-21T04:21:11.489Z,0.50
2023-01-21T04:23:39.491Z,0.50
2023-01-21T04:26:08.913Z,0.50
2023-01-21T04:28:36.942Z,0.50
2023-01-21T04:31:05.031Z,0.40
2023-01-21T04:33:33.127Z,0.40
2023-01-21T04:36:01.746Z,0.40
2023-01-21T04:38:29.771Z,0.40
2023-01-21T04:40:57.779Z,0.40
2023-01-21T04:43:27.129Z,0.50
2023-01-21T04:45:55.185Z,0.50
2023-01-21T04:48:23.268Z,0.50
2023-01-21T04:50:51.300Z,0.50
2023-01-21T04:53:19.292Z,0.50
2023-01-21T04:55:47.357Z,0.50
2023-01-21T04:58:15.318Z,0.50
2023-01-21T05:00:44.632Z,0.50
2023-01-21T05:03:12.630Z,0.50
2023-01-21T05:05:40.627Z,0.40
2023-01-21T05:08:08.815Z,0.40
2023-01-21T05:10:36.875Z,0.40
2023-01-21T05:13:05.423Z,0.40
2023-01-21T05:15:33.492Z,0.40
2023-01-21T05:18:02.922Z,0.30
2023-01-21T05:20:30.911Z,0.30
2023-01-21T05:22:58.931Z,0.30
2023-01-21T05:25:26.982Z,0.30
2023-01-21T05:27:55.706Z,0.30
2023-01-21T05:30:23.923Z,0.20
2023-01-21T05:32:52.615Z,0.20
2023-01-21T05:35:23.569Z,0.20
2023-01-21T05:37:51.543Z,0.20
2023-01-21T05:40:20.111Z,0.20
2023-01-21T05:42:48.561Z,0.20
2023-01-21T05:45:16.723Z,0.20
2023-01-21T05:47:44.779Z,0.20
2023-01-21T05:50:13.442Z,0.20
2023-01-21T05:52:42.997Z,0.20
2023-01-21T05:55:11.183Z,0.20
2023-01-21T05:57:39.153Z,0.20
2023-01-21T06:00:08.703Z,0.20
2023-01-21T06:02:36.783Z,0.20
2023-01-21T06:05:05.070Z,0.20
2023-01-21T06:07:33.075Z,0.10
2023-01-21T06:10:02.406Z,0.20
2023-01-21T06:12:30.395Z,0.20
2023-01-21T06:14:59.379Z,0.20
2023-01-21T06:17:27.412Z,0.20
2023-01-21T06:19:55.761Z,0.10
2023-01-21T06:22:23.810Z,0.20
2023-01-21T06:24:51.785Z,0.20
2023-01-21T06:27:21.165Z,0.20
2023-01-21T06:29:49.142Z,0.20
2023-01-21T06:32:17.172Z,0.30
2023-01-21T06:34:46.668Z,0.30
2023-01-21T06:37:14.908Z,0.30
2023-01-21T06:39:42.954Z,0.30
2023-01-21T06:42:10.909Z,0.30
2023-01-21T06:44:40.266Z,0.30
2023-01-21T06:47:08.607Z,0.30
2023-01-21T06:49:36.621Z,0.30
2023-01-21T06:52:05.065Z,0.30
2023-01-21T06:54:33.146Z,0.30
2023-01-21T06:57:01.149Z,0.40
2023-01-21T06:59:29.156Z,0.30
2023-01-21T07:01:59.273Z,0.30
2023-01-21T07:04:27.872Z,0.30
2023-01-21T07:06:55.905Z,0.30
2023-01-21T07:09:23.885Z,0.30
2023-01-21T07:11:51.967Z,0.30
2023-01-21T07:14:19.941Z,0.30
2023-01-21T07:16:47.951Z,0.20
2023-01-21T07:19:17.326Z,0.20
2023-01-21T07:21:45.350Z,0.20
2023-01-21T07:24:13.374Z,0.20
2023-01-21T07:26:41.641Z,0.20
2023-01-21T07:29:09.904Z,0.20
2023-01-21T07:31:38.042Z,0.20
2023-01-21T07:34:06.560Z,0.30
2023-01-21T07:36:35.906Z,0.30
2023-01-21T07:39:04.313Z,0.20
2023-01-21T07:41:32.320Z,0.20
2023-01-21T07:44:00.368Z,0.20
2023-01-21T07:46:28.344Z,0.20
2023-01-21T07:48:56.402Z,0.20
2023-01-21T07:51:24.403Z,0.20
2023-01-21T07:53:56.258Z,0.20
2023-01-21T07:56:25.158Z,0.20
2023-01-21T07:58:53.304Z,0.20
2023-01-21T08:01:24.463Z,0.30
2023-01-21T08:03:53.260Z,0.30
2023-01-21T08:06:21.257Z,0.30
2023-01-21T08:08:49.560Z,0.30
2023-01-21T08:11:21.622Z,0.30
2023-01-21T08:13:50.581Z,0.40
2023-01-21T08:16:18.718Z,0.40
2023-01-21T08:18:46.793Z,0.50
2023-01-21T08:21:15.741Z,0.50
2023-01-21T08:23:43.882Z,0.50
2023-01-21T08:26:12.024Z,0.50
2023-01-21T08:28:41.479Z,0.60
2023-01-21T08:31:12.126Z,0.60
2023-01-21T08:33:40.605Z,0.60
2023-01-21T08:36:10.049Z,0.60
2023-01-21T08:38:40.019Z,0.60
2023-01-21T08:41:08.001Z,0.60
2023-01-21T08:43:36.001Z,0.70
2023-01-21T08:46:05.586Z,0.70
2023-01-21T08:48:33.579Z,0.80
2023-01-21T08:51:02.016Z,0.80
2023-01-21T08:53:30.079Z,0.80
2023-01-21T08:56:00.452Z,0.90
2023-01-21T08:58:28.521Z,0.90
2023-01-21T09:00:57.058Z,0.90
2023-01-21T09:03:26.466Z,1.00
2023-01-21T09:05:55.751Z,1.00
2023-01-21T09:08:23.789Z,1.10
2023-01-21T09:11:03.593Z,1.10
2023-01-21T09:13:33.674Z,1.10
2023-01-21T09:16:02.131Z,1.20
2023-01-21T09:18:31.480Z,1.20
2023-01-21T09:21:02.945Z,1.20
2023-01-21T09:23:34.098Z,1.30
2023-01-21T09:26:04.229Z,1.30
2023-01-21T09:28:33.918Z,1.30
2023-01-21T09:31:03.736Z,1.40
2023-01-21T09:33:35.328Z,1.30
2023-01-21T09:36:05.756Z,1.40
2023-01-21T09:38:34.183Z,1.40
2023-01-21T09:41:13.324Z,1.50
2023-01-21T09:43:45.776Z,1.50
2023-01-21T09:46:18.374Z,1.60
2023-01-21T09:48:50.424Z,1.60
2023-01-21T09:51:23.421Z,1.60
2023-01-21T09:53:55.410Z,1.70
2023-01-21T09:56:30.218Z,1.70
2023-01-21T09:59:04.903Z,1.80
2023-01-21T10:01:35.254Z,1.80
2023-01-21T10:04:25.546Z,1.80
2023-01-21T10:07:00.353Z,1.80
2023-01-21T10:09:51.910Z,1.80
2023-01-21T10:12:32.638Z,1.80
2023-01-21T10:15:26.051Z,1.80
2023-01-21T10:17:58.602Z,1.90
2023-01-21T10:20:32.028Z,1.90
2023-01-21T10:23:05.311Z,1.90
2023-01-21T10:25:34.627Z,1.90
2023-01-21T10:28:06.608Z,1.90
2023-01-21T10:30:39.891Z,2.00
2023-01-21T10:33:17.232Z,2.00
2023-01-21T10:36:03.456Z,2.00
2023-01-21T10:38:37.639Z,2.00
2023-01-21T10:41:27.511Z,2.00
2023-01-21T10:44:05.314Z,2.10
2023-01-21T10:46:42.518Z,2.10
2023-01-21T10:49:27.591Z,2.10
2023-01-21T10:52:03.654Z,2.00
2023-01-21T10:54:41.258Z,2.00
2023-01-21T10:57:21.391Z,2.00
2023-01-21T10:59:50.636Z,2.00
2023-01-21T11:02:23.356Z,2.10
2023-01-21T11:04:52.219Z,2.10
2023-01-21T11:07:23.330Z,2.20
2023-01-21T11:09:52.739Z,2.30
2023-01-21T11:12:22.200Z,2.30
2023-01-21T11:14:54.729Z,2.30
2023-01-21T11:17:34.668Z,2.30
2023-01-21T11:20:05.118Z,2.30
2023-01-21T11:22:43.563Z,2.30
2023-01-21T11:25:26.572Z,2.20
2023-01-21T11:27:54.631Z,2.20
2023-01-21T11:30:49.658Z,2.20
2023-01-21T11:33:25.773Z,2.30
2023-01-21T11:35:55.079Z,2.40
2023-01-21T11:38:38.137Z,2.30
2023-01-21T11:41:16.144Z,2.30
2023-01-21T11:43:45.752Z,2.30
2023-01-21T11:46:32.051Z,2.40
2023-01-21T11:49:29.838Z,2.40
2023-01-21T11:52:19.043Z,2.40
2023-01-21T11:54:49.055Z,2.50
2023-01-21T11:57:29.878Z,2.50
2023-01-21T12:00:08.699Z,2.50
2023-01-21T12:02:46.336Z,2.60
2023-01-21T12:05:18.384Z,2.60
2023-01-21T12:07:50.240Z,2.60
2023-01-21T12:10:31.647Z,2.60
2023-01-21T12:13:20.951Z,2.70
2023-01-21T12:16:31.260Z,2.70
2023-01-21T12:19:32.779Z,2.80
2023-01-21T12:22:17.201Z,2.80
2023-01-21T12:25:05.898Z,2.80
2023-01-21T12:27:48.325Z,2.80
2023-01-21T12:30:26.191Z,2.90
2023-01-21T12:32:57.163Z,2.90
2023-01-21T12:35:29.866Z,2.90
2023-01-21T12:38:01.681Z,3.00
2023-01-21T12:40:34.949Z,3.00
2023-01-21T12:43:09.594Z,3.00
2023-01-21T12:45:44.444Z,3.00
2023-01-21T12:48:19.890Z,3.00
2023-01-21T12:50:53.011Z,3.00
2023-01-21T12:53:31.089Z,3.00
2023-01-21T12:56:09.313Z,3.10
2023-01-21T12:58:42.764Z,3.10
2023-01-21T13:01:14.190Z,3.10
2023-01-21T13:03:54.645Z,3.10
2023-01-21T13:06:47.151Z,3.20
2023-01-21T13:09:26.548Z,3.10
2023-01-21T13:11:59.495Z,3.10
2023-01-21T13:14:34.843Z,3.10
2023-01-21T13:17:06.461Z,3.10
2023-01-21T13:19:34.782Z,3.10
2023-01-21T13:22:09.805Z,3.10
2023-01-21T13:24:56.848Z,3.20
2023-01-21T13:27:33.051Z,3.20
2023-01-21T13:30:10.947Z,3.30
2023-01-21T13:32:47.166Z,3.30
2023-01-21T13:35:27.127Z,3.20
2023-01-21T13:38:09.002Z,3.20
2023-01-21T13:40:46.681Z,3.20
2023-01-21T13:43:34.677Z,3.20
2023-01-21T13:46:14.227Z,3.20
2023-01-21T13:49:14.067Z,3.20
2023-01-21T13:51:59.168Z,3.20
2023-01-21T13:54:47.696Z,3.30
2023-01-21T13:57:46.129Z,3.20
2023-01-21T14:00:19.100Z,3.20
2023-01-21T14:02:55.019Z,3.10
2023-01-21T14:05:27.813Z,3.10
2023-01-21T14:08:01.212Z,3.20
2023-01-21T14:10:34.398Z,3.20
2023-01-21T14:13:32.520Z,3.10
2023-01-21T14:16:23.439Z,3.10
2023-01-21T14:19:19.577Z,3.10
2023-01-21T14:22:05.970Z,3.10
2023-01-21T14:25:08.928Z,3.20
2023-01-21T14:27:47.654Z,3.10
2023-01-21T14:30:21.333Z,3.10
2023-01-21T14:32:53.437Z,3.30
2023-01-21T14:35:28.206Z,3.20
2023-01-21T14:38:09.044Z,3.20
2023-01-21T14:40:46.553Z,3.10
2023-01-21T14:43:41.014Z,3.00
2023-01-21T14:46:29.700Z,3.00
2023-01-21T14:49:01.334Z,3.00
2023-01-21T14:51:32.399Z,3.00
2023-01-21T14:54:03.522Z,3.00
2023-01-21T14:56:33.187Z,3.00
2023-01-21T14:59:04.642Z,3.00
2023-01-21T15:01:39.977Z,3.10
2023-01-21T15:04:20.152Z,3.00
2023-01-21T15:06:53.979Z,3.00
2023-01-21T15:09:26.927Z,3.00
2023-01-21T15:12:00.759Z,3.00
2023-01-21T15:14:31.524Z,3.00
2023-01-21T15:16:59.723Z,3.00
2023-01-21T15:19:33.818Z,3.00
2023-01-21T15:22:31.167Z,3.00
2023-01-21T15:25:25.044Z,3.00
2023-01-21T15:28:34.184Z,3.10
2023-01-21T15:31:04.376Z,3.20
2023-01-21T15:33:36.476Z,3.20
2023-01-21T15:36:06.471Z,3.10
2023-01-21T15:38:41.553Z,3.10
2023-01-21T15:41:20.934Z,3.10
2023-01-21T15:43:56.525Z,3.10
2023-01-21T15:46:33.798Z,3.10
2023-01-21T15:49:17.719Z,3.10
2023-01-21T15:51:55.829Z,3.00
2023-01-21T15:54:41.118Z,3.00
2023-01-21T15:57:38.313Z,3.00
2023-01-21T16:00:32.446Z,2.90
2023-01-21T16:03:11.574Z,2.80
2023-01-21T16:05:48.528Z,2.80
2023-01-21T16:08:26.359Z,2.80
2023-01-21T16:11:17.121Z,2.90
2023-01-21T16:13:55.959Z,2.90
2023-01-21T16:16:38.015Z,2.90
2023-01-21T16:19:09.618Z,2.90
2023-01-21T16:21:41.475Z,2.90
2023-01-21T16:24:13.537Z,2.90
2023-01-21T16:26:43.052Z,2.90
2023-01-21T16:29:13.533Z,2.90
2023-01-21T16:31:52.166Z,2.90
2023-01-21T16:34:26.003Z,2.90
2023-01-21T16:36:54.163Z,2.90
2023-01-21T16:39:22.319Z,2.80
2023-01-21T16:42:02.321Z,2.80
2023-01-21T16:44:31.429Z,2.80
2023-01-21T16:46:59.671Z,2.80
2023-01-21T16:49:27.996Z,2.90
2023-01-21T16:52:00.275Z,2.90
2023-01-21T16:54:31.441Z,2.90
2023-01-21T16:57:03.091Z,2.80
2023-01-21T16:59:38.555Z,2.80
2023-01-21T17:02:16.864Z,2.90
2023-01-21T17:04:45.062Z,2.80
2023-01-21T17:07:16.719Z,2.80
2023-01-21T17:09:44.973Z,2.80
2023-01-21T17:12:23.531Z,2.80
2023-01-21T17:14:57.259Z,2.80
2023-01-21T17:17:28.100Z,2.80
2023-01-21T17:19:56.105Z,2.80
2023-01-21T17:22:27.315Z,2.80
2023-01-21T17:25:06.641Z,2.80
2023-01-21T17:27:38.770Z,2.80
2023-01-21T17:30:27.237Z,2.80
2023-01-21T17:32:56.820Z,2.80
2023-01-21T17:35:26.624Z,2.80
2023-01-21T17:37:56.229Z,2.80
2023-01-21T17:40:36.619Z,2.80
2023-01-21T17:43:20.326Z,2.80
2023-01-21T17:45:50.715Z,2.70
2023-01-21T17:48:26.524Z,2.70
2023-01-21T17:50:55.905Z,2.80
2023-01-21T17:53:27.331Z,2.70
2023-01-21T17:56:01.514Z,2.70
2023-01-21T17:58:45.536Z,2.70
2023-01-21T18:01:14.065Z,2.70
2023-01-21T18:03:42.178Z,2.70
2023-01-21T18:06:18.286Z,2.70
2023-01-21T18:08:46.380Z,2.70
2023-01-21T18:11:17.397Z,2.70
2023-01-21T18:13:46.881Z,2.70
2023-01-21T18:16:15.379Z,2.70
2023-01-21T18:18:43.532Z,2.70
2023-01-21T18:21:19.913Z,2.60
2023-01-21T18:23:48.861Z,2.60
2023-01-21T18:26:26.029Z,2.60
2023-01-21T18:28:55.599Z,2.60
2023-01-21T18:31:23.842Z,2.60
2023-01-21T18:33:51.987Z,2.60
2023-01-21T18:36:20.302Z,2.60
2023-01-21T18:38:48.396Z,2.60
2023-01-21T18:41:16.474Z,2.60
2023-01-21T18:43:44.537Z,2.60
2023-01-21T18:46:16.292Z,2.70
2023-01-21T18:48:44.525Z,2.60
2023-01-21T18:51:14.068Z,2.60
2023-01-21T18:53:42.150Z,2.60
2023-01-21T18:56:14.234Z,2.60
2023-01-21T18:58:42.310Z,2.60
2023-01-21T19:01:22.110Z,2.60
2023-01-21T19:03:54.983Z,2.60
2023-01-21T19:06:25.664Z,2.70
2023-01-21T19:08:55.017Z,2.60
2023-01-21T19:11:23.274Z,2.60
2023-01-21T19:13:51.426Z,2.60
2023-01-21T19:16:21.275Z,2.60
2023-01-21T19:18:49.675Z,2.60
2023-01-21T19:21:19.185Z,2.60
2023-01-21T19:23:47.347Z,2.60
2023-01-21T19:26:15.464Z,2.50
2023-01-21T19:28:43.547Z,2.60
2023-01-21T19:31:11.760Z,2.50
2023-01-21T19:33:41.908Z,2.50
2023-01-21T19:36:15.978Z,2.50
2023-01-21T19:38:49.638Z,2.50
2023-01-21T19:41:17.967Z,2.50
2023-01-21T19:43:46.077Z,2.50
2023-01-21T19:46:14.527Z,2.50
2023-01-21T19:48:42.763Z,2.50
2023-01-21T19:51:10.902Z,2.60
2023-01-21T19:53:38.999Z,2.60
2023-01-21T19:56:13.468Z,2.60
2023-01-21T19:58:42.141Z,2.50
2023-01-21T20:01:10.336Z,2.60
2023-01-21T20:03:41.538Z,2.60
2023-01-21T20:06:13.977Z,2.60
2023-01-21T20:08:42.285Z,2.60
2023-01-21T20:11:11.718Z,2.60
2023-01-21T20:13:39.724Z,2.60
2023-01-21T20:16:15.486Z,2.60
2023-01-21T20:18:46.201Z,2.60
2023-01-21T20:21:14.401Z,2.60
2023-01-21T20:23:42.567Z,2.50
2023-01-21T20:26:17.935Z,2.50
2023-01-21T20:28:50.277Z,2.50
2023-01-21T20:31:18.793Z,2.50
2023-01-21T20:33:47.006Z,2.60
2023-01-21T20:36:19.051Z,2.60
2023-01-21T20:38:47.062Z,2.60
2023-01-21T20:41:16.534Z,2.60
2023-01-21T20:43:44.722Z,2.60
2023-01-21T20:46:16.869Z,2.50
2023-01-21T20:48:45.577Z,2.50
2023-01-21T20:51:13.817Z,2.50
2023-01-21T20:53:41.928Z,2.50
2023-01-21T20:56:21.190Z,2.50
2023-01-21T20:58:49.288Z,2.60
2023-01-21T21:01:22.515Z,2.60
2023-01-21T21:03:50.853Z,2.60
2023-01-21T21:06:21.331Z,2.60
2023-01-21T21:08:50.208Z,2.60
2023-01-21T21:11:20.674Z,2.60
2023-01-21T21:13:51.947Z,2.70
2023-01-21T21:16:22.582Z,2.90
2023-01-21T21:18:50.800Z,2.80
2023-01-21T21:21:22.468Z,2.70
2023-01-21T21:23:52.183Z,2.70
2023-01-21T21:26:24.072Z,2.70
2023-01-21T21:28:54.646Z,2.60
2023-01-21T21:31:23.304Z,2.60
2023-01-21T21:33:51.390Z,2.60
2023-01-21T21:36:21.424Z,2.50
2023-01-21T21:38:49.972Z,2.50
2023-01-21T21:41:36.882Z,2.50
2023-01-21T21:44:08.615Z,2.50
2023-01-21T21:46:54.728Z,2.50
2023-01-21T21:49:22.838Z,2.50
2023-01-21T21:51:50.865Z,2.60
2023-01-21T21:54:19.240Z,2.50
2023-01-21T21:56:47.841Z,2.50
2023-01-21T21:59:17.457Z,2.50
2023-01-21T22:01:45.835Z,2.50
2023-01-21T22:04:14.004Z,2.60
2023-01-21T22:06:42.076Z,2.60
2023-01-21T22:09:18.502Z,2.60
2023-01-21T22:12:11.714Z,2.50
2023-01-21T22:14:41.091Z,2.50
2023-01-21T22:17:09.588Z,2.50
2023-01-21T22:19:37.871Z,2.50
2023-01-21T22:22:06.027Z,2.50
2023-01-21T22:24:34.020Z,2.50
2023-01-21T22:27:02.075Z,2.50
2023-01-21T22:29:33.286Z,2.60
2023-01-21T22:32:03.743Z,2.60
2023-01-21T22:34:32.704Z,2.60
2023-01-21T22:37:00.819Z,2.60
2023-01-21T22:39:28.784Z,2.60
2023-01-21T22:42:00.066Z,2.70
2023-01-21T22:44:28.163Z,2.70
2023-01-21T22:46:59.407Z,2.70
2023-01-21T22:49:28.959Z,2.80
2023-01-21T22:52:00.125Z,2.70
2023-01-21T22:54:28.159Z,2.70
2023-01-21T22:56:56.138Z,2.70
2023-01-21T22:59:24.147Z,2.70
2023-01-21T23:01:52.376Z,2.70
2023-01-21T23:04:20.419Z,2.70
2023-01-21T23:06:54.670Z,2.70
2023-01-21T23:09:22.755Z,2.70
2023-01-21T23:11:52.557Z,2.70
2023-01-21T23:14:21.344Z,2.70
2023-01-21T23:16:49.499Z,2.70
2023-01-21T23:19:17.536Z,2.70
2023-01-21T23:21:45.630Z,2.70
2023-01-21T23:24:14.988Z,2.70
2023-01-21T23:26:43.102Z,2.80
2023-01-21T23:29:17.551Z,2.90
2023-01-21T23:31:45.813Z,2.90
2023-01-21T23:34:15.075Z,2.80
2023-01-21T23:36:43.112Z,2.80
2023-01-21T23:39:11.893Z,2.80
2023-01-21T23:41:41.222Z,2.80
2023-01-21T23:44:10.741Z,2.80
2023-01-21T23:46:38.971Z,2.80
2023-01-21T23:49:07.195Z,2.80
2023-01-21T23:51:35.235Z,2.80
2023-01-21T23:54:03.341Z,2.70
2023-01-21T23:56:31.357Z,2.70
2023-01-21T23:59:00.712Z,2.80
